Time;durP1;ratioP1;P1;durP2;ratioP2;P2;SDS_P1;SDS_P2;PMS_P1;PMS_P2;Temp;Humidity;BMP_temperature;BMP_pressure;BME280_temperature;BME280_humidity;BME280_pressure;Samples;Min_cycle;Max_cycle;Signal;HPM_P1;HPM_P2
2023/08/28 00:02:26;;;;;;;0.30;0.30;;;27.50;62.30;;;27.93;46.92;94488.88;4992759;28;20610;-29
2023/08/28 00:04:53;;;;;;;0.30;0.30;;;27.50;62.20;;;27.91;47.36;94491.09;5076052;28;20195;-30
2023/08/28 00:07:20;;;;;;;0.38;0.38;;;27.40;62.10;;;27.91;46.83;94501.88;4992974;28;20634;-31
2023/08/28 00:09:47;;;;;;;0.38;0.38;;;27.50;62.20;;;27.90;47.42;94496.81;4993059;28;20203;-29
2023/08/28 00:12:15;;;;;;;0.30;0.30;;;27.40;62.10;;;27.89;46.95;94495.19;4992888;28;20628;-29
2023/08/28 00:14:42;;;;;;;0.30;0.30;;;27.40;62.10;;;27.89;46.84;94492.50;4992632;28;20714;-31
2023/08/28 00:17:09;;;;;;;0.30;0.30;;;27.40;62.10;;;27.88;46.80;94496.31;4993180;28;20593;-29
2023/08/28 00:19:36;;;;;;;0.25;0.25;;;27.40;62.10;;;27.87;46.86;94495.53;4992804;28;20625;-30
2023/08/28 00:22:03;;;;;;;0.40;0.40;;;27.40;62.10;;;27.87;46.71;94487.44;4992761;28;20628;-29
2023/08/28 00:24:30;;;;;;;0.30;0.30;;;27.40;62.10;;;27.85;47.18;94478.09;4992831;28;20213;-30
2023/08/28 00:26:57;;;;;;;0.30;0.30;;;27.40;62.10;;;27.86;47.16;94487.75;4992731;28;20240;-30
2023/08/28 00:29:24;;;;;;;0.35;0.35;;;27.40;62.10;;;27.86;46.71;94482.38;4992985;28;20616;-30
2023/08/28 00:31:51;;;;;;;0.30;0.30;;;27.40;62.20;;;27.85;46.82;94472.69;4991718;28;20218;-29
2023/08/28 00:34:18;;;;;;;0.30;0.30;;;27.40;62.10;;;27.85;47.08;94492.34;5007867;28;20213;-29
2023/08/28 00:36:46;;;;;;;0.30;0.30;;;27.40;62.10;;;27.84;47.17;94496.13;4993423;28;20502;-31
2023/08/28 00:39:12;;;;;;;0.40;0.40;;;27.30;62.10;;;27.84;47.22;94479.19;5007970;28;20226;-29
2023/08/28 00:41:40;;;;;;;0.30;0.30;;;27.30;62.20;;;27.84;47.25;94471.09;5007883;28;20228;-29
2023/08/28 00:44:07;;;;;;;0.30;0.30;;;27.30;62.10;;;27.83;46.94;94469.50;5007712;28;20203;-30
2023/08/28 00:46:35;;;;;;;0.28;0.28;;;27.30;62.10;;;27.82;47.11;94470.59;4992467;28;20211;-29
2023/08/28 00:49:02;;;;;;;0.30;0.30;;;27.30;62.10;;;27.82;46.60;94462.53;5007816;28;20222;-29
2023/08/28 00:51:30;;;;;;;0.30;0.30;;;27.30;62.10;;;27.83;46.92;94461.41;4992455;28;20236;-31
2023/08/28 00:53:57;;;;;;;0.28;0.28;;;27.30;62.10;;;27.82;47.26;94457.13;5076348;28;20209;-30
2023/08/28 00:56:24;;;;;;;0.30;0.30;;;27.30;62.10;;;27.80;46.71;94460.94;5076172;28;20250;-30
2023/08/28 00:58:51;;;;;;;0.30;0.30;;;27.30;62.10;;;27.79;46.81;94458.56;5007711;28;20210;-30
2023/08/28 01:01:18;;;;;;;0.30;0.30;;;27.40;62.10;;;27.78;46.97;94471.25;5076007;28;20239;-30
2023/08/28 01:03:46;;;;;;;0.30;0.30;;;27.30;62.00;;;27.76;46.99;94476.16;4991357;28;20200;-29
2023/08/28 01:06:36;;;;;;;0.25;0.25;;;27.30;61.90;;;27.73;47.18;94473.28;5007390;28;20234;-30
2023/08/28 01:09:13;;;;;;;0.30;0.30;;;27.30;61.90;;;27.73;46.32;94473.28;4991339;28;20263;-29
2023/08/28 01:11:52;;;;;;;0.30;0.30;;;27.30;61.90;;;27.70;46.55;94461.22;4992240;28;20219;-29
2023/08/28 01:14:26;;;;;;;0.30;0.30;;;27.30;62.00;;;27.69;47.17;94473.09;5079785;28;20206;-29
2023/08/28 01:17:05;;;;;;;0.30;0.30;;;27.20;61.90;;;27.70;46.89;94479.31;4994455;28;20622;-29
2023/08/28 01:19:38;;;;;;;0.20;0.20;;;27.30;62.10;;;27.69;46.95;94477.72;4995233;28;20275;-29
2023/08/28 01:22:55;;;;;;;0.20;0.20;;;27.20;62.00;;;27.66;46.89;94489.09;4994548;28;20202;-29
2023/08/28 01:25:26;;;;;;;0.20;0.20;;;27.20;61.80;;;27.65;46.93;94482.94;5001025;28;20337;-29
2023/08/28 01:27:54;;;;;;;0.30;0.30;;;27.20;62.00;;;27.65;46.58;94477.53;4995679;28;20186;-29
2023/08/28 01:30:21;;;;;;;0.30;0.30;;;27.20;62.00;;;27.64;46.70;94481.34;5079567;28;20220;-29
2023/08/28 01:32:48;;;;;;;0.20;0.20;;;27.20;61.90;;;27.63;46.73;94479.75;4995472;28;20280;-30
2023/08/28 01:35:20;;;;;;;0.30;0.30;;;27.20;62.10;;;27.64;46.58;94475.94;5010379;28;20219;-30
2023/08/28 01:38:12;;;;;;;0.25;0.25;;;27.20;62.10;;;27.61;46.67;94468.47;4978310;28;20190;-29
2023/08/28 01:40:59;;;;;;;0.30;0.30;;;27.20;62.10;;;27.59;47.31;94476.09;4995508;28;20185;-29
2023/08/28 01:43:38;;;;;;;0.30;0.30;;;27.10;62.10;;;27.58;46.71;94479.88;4978174;28;20263;-30
2023/08/28 01:46:07;;;;;;;0.30;0.30;;;27.20;62.10;;;27.60;47.28;94480.34;4994133;28;20217;-30
2023/08/28 01:48:37;;;;;;;0.30;0.30;;;27.10;62.10;;;27.59;46.85;94470.69;5062511;28;20240;-30
2023/08/28 01:51:04;;;;;;;0.30;0.30;;;27.10;62.10;;;27.59;47.07;94474.19;4995333;28;20263;-30
2023/08/28 01:53:31;;;;;;;0.30;0.30;;;27.10;62.20;;;27.59;46.98;94473.41;4995248;28;20277;-29
2023/08/28 01:56:07;;;;;;;0.22;0.22;;;27.20;62.20;;;27.59;47.32;94482.25;4994750;28;20661;-29
2023/08/28 01:58:51;;;;;;;0.30;0.30;;;27.10;62.10;;;27.56;47.09;94482.91;4994032;28;20190;-29
2023/08/28 02:01:19;;;;;;;0.20;0.20;;;27.10;62.10;;;27.55;46.68;94481.31;5010313;28;20277;-30
2023/08/28 02:03:47;;;;;;;0.30;0.30;;;27.10;62.10;;;27.56;46.99;94480.22;4993923;28;20292;-30
2023/08/28 02:06:15;;;;;;;0.30;0.30;;;27.10;62.00;;;27.56;47.44;94474.81;5010006;28;20202;-30
2023/08/28 02:08:42;;;;;;;0.22;0.22;;;27.10;62.10;;;27.56;47.38;94474.81;4993809;28;20215;-29
2023/08/28 02:11:09;;;;;;;0.30;0.30;;;27.10;62.30;;;27.56;47.09;94469.44;5062030;28;20307;-31
2023/08/28 02:13:37;;;;;;;0.30;0.30;;;27.10;62.20;;;27.57;47.15;94462.91;4994693;28;20642;-29
2023/08/28 02:16:05;;;;;;;0.40;0.40;;;27.10;62.30;;;27.57;46.74;94460.22;5009966;28;20249;-30
2023/08/28 02:18:32;;;;;;;0.30;0.30;;;27.10;62.20;;;27.56;46.92;94474.00;5010016;28;20283;-30
2023/08/28 02:21:00;;;;;;;0.30;0.30;;;27.10;61.80;;;27.52;46.51;94486.53;5010023;28;20661;-29
2023/08/28 02:23:27;;;;;;;0.30;0.30;;;27.10;61.80;;;27.44;46.11;94488.03;4994181;28;20191;-30
2023/08/28 02:25:54;;;;;;;0.40;0.40;;;27.10;61.50;;;27.38;46.24;94490.06;4993171;28;20259;-31
2023/08/28 02:28:21;;;;;;;0.25;0.25;;;27.10;61.60;;;27.32;46.66;94484.00;5009812;28;20213;-29
2023/08/28 02:30:48;;;;;;;0.20;0.20;;;27.00;61.80;;;27.32;46.27;94481.31;5009805;28;20599;-30
2023/08/28 02:33:16;;;;;;;0.30;0.30;;;27.00;61.70;;;27.28;46.63;94483.06;4994943;28;20619;-30
2023/08/28 02:35:44;;;;;;;0.30;0.30;;;27.00;61.70;;;27.22;46.41;94489.66;5078251;28;20649;-29
2023/08/28 02:38:12;;;;;;;0.30;0.30;;;26.90;61.60;;;27.19;46.39;94482.19;4994597;28;20214;-30
2023/08/28 02:40:39;;;;;;;0.30;0.30;;;26.90;61.80;;;27.17;47.12;94476.31;5009671;28;20296;-30
2023/08/28 02:43:07;;;;;;;0.30;0.30;;;26.80;61.80;;;27.17;47.06;94470.94;4994231;28;20634;-29
2023/08/28 02:45:38;;;;;;;0.28;0.28;;;26.80;61.90;;;27.16;46.80;94475.53;4994223;28;20537;-30
2023/08/28 02:48:09;;;;;;;0.30;0.30;;;26.80;62.10;;;27.19;47.28;94457.97;4993276;28;20198;-28
2023/08/28 02:50:36;;;;;;;0.25;0.25;;;26.80;62.20;;;27.20;47.21;94454.16;5009549;28;20195;-29
2023/08/28 02:53:04;;;;;;;0.30;0.30;;;26.80;62.30;;;27.20;46.85;94466.84;5009494;28;20237;-29
2023/08/28 02:55:41;;;;;;;0.30;0.30;;;26.80;62.10;;;27.19;46.75;94479.50;5009145;28;20222;-30
2023/08/28 02:58:10;;;;;;;0.30;0.30;;;26.80;62.20;;;27.17;47.00;94482.50;5009388;28;20517;-29
2023/08/28 03:00:41;;;;;;;0.30;0.30;;;26.70;62.00;;;27.17;46.79;94487.09;5009354;28;20200;-30
2023/08/28 03:03:08;;;;;;;0.30;0.30;;;26.80;62.10;;;27.16;47.07;94499.75;5009317;28;20212;-29
2023/08/28 03:05:35;;;;;;;0.30;0.30;;;26.80;63.00;;;27.15;47.07;94500.06;4993755;28;20212;-29
2023/08/28 03:08:03;;;;;;;0.30;0.30;;;26.70;62.10;;;27.14;46.99;94501.16;4993697;28;20241;-29
2023/08/28 03:10:31;;;;;;;0.30;0.30;;;26.70;62.20;;;27.14;47.01;94503.88;5009163;28;20217;-29
2023/08/28 03:12:58;;;;;;;0.30;0.30;;;26.70;62.10;;;27.13;46.74;94475.34;4993830;28;20225;-29
2023/08/28 03:15:26;;;;;;;0.28;0.28;;;26.70;62.20;;;27.13;47.05;94480.72;4993687;28;20227;-30
2023/08/28 03:17:53;;;;;;;0.30;0.30;;;26.70;62.30;;;27.13;46.91;94478.81;4993412;28;20247;-30
2023/08/28 03:20:20;;;;;;;0.32;0.32;;;26.70;62.30;;;27.12;47.23;94474.56;5009160;28;20219;-29
2023/08/28 03:22:48;;;;;;;0.30;0.30;;;26.70;62.30;;;27.11;47.51;94475.66;5009052;28;20208;-29
2023/08/28 03:25:15;;;;;;;0.35;0.35;;;26.70;62.30;;;27.11;47.09;94470.28;4993630;28;20271;-30
2023/08/28 03:27:42;;;;;;;0.30;0.30;;;26.70;62.40;;;27.11;47.27;94456.81;4993426;28;20249;-30
2023/08/28 03:30:11;;;;;;;0.30;0.30;;;26.70;62.40;;;27.13;47.54;94461.88;5008992;28;20202;-35
2023/08/28 03:32:39;;;;;;;0.30;0.30;;;26.70;62.50;;;27.15;47.47;94457.78;4993890;28;20192;-32
2023/08/28 03:35:06;;;;;;;0.32;0.32;;;26.70;62.60;;;27.17;47.33;94439.44;4993263;28;20285;-29
2023/08/28 03:37:33;;;;;;;0.40;0.40;;;26.70;62.50;;;27.18;47.54;94426.75;4991719;28;20279;-30
2023/08/28 03:40:03;;;;;;;0.30;0.30;;;26.80;62.60;;;27.20;47.37;94429.94;4992622;28;20293;-29
2023/08/28 03:42:31;;;;;;;0.20;0.20;;;26.70;62.50;;;27.22;47.29;94449.28;4993347;28;20689;-31
2023/08/28 03:44:58;;;;;;;0.30;0.30;;;26.80;62.50;;;27.23;47.35;94452.75;5008709;28;20230;-30
2023/08/28 03:47:25;;;;;;;0.40;0.40;;;26.80;62.60;;;27.23;47.43;94440.06;4976924;28;20249;-30
2023/08/28 03:49:52;;;;;;;0.30;0.30;;;26.80;62.50;;;27.25;47.84;94447.88;5008612;28;20633;-30
2023/08/28 03:52:21;;;;;;;0.30;0.30;;;26.80;62.50;;;27.25;47.96;94445.97;4992559;28;20598;-32
2023/08/28 03:54:48;;;;;;;0.30;0.30;;;26.80;62.50;;;27.25;47.41;94448.66;4993168;28;20700;-29
2023/08/28 03:57:15;;;;;;;0.40;0.40;;;26.80;62.50;;;27.27;47.59;94451.03;4992927;28;20215;-30
2023/08/28 03:59:42;;;;;;;0.30;0.30;;;26.80;62.50;;;27.25;47.25;94448.66;4993132;28;20222;-30
2023/08/28 04:02:09;;;;;;;0.40;0.40;;;26.80;62.40;;;27.26;47.44;94431.41;4992171;28;20211;-31
2023/08/28 04:04:37;;;;;;;0.30;0.30;;;26.80;62.50;;;27.27;47.48;94418.72;4992104;28;20197;-31
2023/08/28 04:07:05;;;;;;;0.40;0.40;;;26.90;62.60;;;27.26;47.60;94415.25;5076492;28;20263;-30
2023/08/28 04:09:32;;;;;;;0.30;0.30;;;26.90;63.50;;;27.29;47.45;94427.28;5008273;28;20199;-29
2023/08/28 04:11:59;;;;;;;0.30;0.30;;;26.90;62.50;;;27.29;48.09;94420.00;4992981;28;20597;-29
2023/08/28 04:14:26;;;;;;;0.32;0.32;;;26.90;62.60;;;27.29;47.79;94421.91;4992257;28;20217;-29
2023/08/28 04:16:53;;;;;;;0.30;0.30;;;26.90;62.60;;;27.29;47.62;94420.00;4992538;28;20237;-29
2023/08/28 04:19:20;;;;;;;0.40;0.40;;;26.90;62.60;;;27.30;47.58;94412.72;4993131;28;20192;-31
2023/08/28 04:21:47;;;;;;;0.40;0.40;;;26.90;62.60;;;27.31;47.61;94431.25;4992793;28;20206;-29
2023/08/28 04:24:14;;;;;;;0.30;0.30;;;26.90;62.50;;;27.32;47.57;94423.97;4993084;28;20210;-30
2023/08/28 04:26:41;;;;;;;0.40;0.40;;;26.90;62.50;;;27.31;47.56;94427.78;4992963;28;20215;-31
2023/08/28 04:29:09;;;;;;;0.30;0.30;;;26.90;62.50;;;27.30;47.84;94424.28;4992720;28;20210;-30
2023/08/28 04:31:36;;;;;;;0.30;0.30;;;26.90;62.50;;;27.29;47.31;94436.16;4991762;28;20210;-29
2023/08/28 04:34:03;;;;;;;0.30;0.30;;;26.90;62.50;;;27.30;47.50;94440.44;5008051;28;20339;-29
2023/08/28 04:36:30;;;;;;;0.30;0.30;;;26.90;62.30;;;27.30;47.66;94434.25;5007909;28;20634;-32
2023/08/28 04:38:57;;;;;;;0.30;0.30;;;26.90;62.40;;;27.30;47.22;94426.19;4991513;28;20219;-30
2023/08/28 04:41:24;;;;;;;0.30;0.30;;;26.90;62.40;;;27.28;47.25;94434.56;4992647;28;20725;-30
2023/08/28 04:43:52;;;;;;;0.30;0.30;;;26.90;62.40;;;27.28;47.13;94423.00;4992827;28;20204;-30
2023/08/28 04:46:19;;;;;;;0.28;0.28;;;26.90;62.40;;;27.28;47.21;94404.16;4992106;28;20200;-30
2023/08/28 04:48:46;;;;;;;0.40;0.40;;;26.90;62.50;;;27.28;47.66;94394.19;5010735;28;20608;-32
2023/08/28 04:51:13;;;;;;;0.40;0.40;;;26.90;62.50;;;27.25;47.22;94386.72;5011298;28;20319;-31
2023/08/28 04:53:40;;;;;;;0.30;0.30;;;26.90;62.50;;;27.28;47.37;94394.19;4995936;28;20196;-30
2023/08/28 04:56:08;;;;;;;0.20;0.20;;;26.90;62.50;;;27.29;47.41;94397.66;5011166;28;20224;-30
2023/08/28 04:58:35;;;;;;;0.40;0.40;;;26.90;62.50;;;27.29;47.78;94405.75;4995737;28;20279;-30
2023/08/28 05:01:03;;;;;;;0.30;0.30;;;26.90;62.50;;;27.28;47.94;94402.28;5011208;28;20254;-30
2023/08/28 05:03:30;;;;;;;0.22;0.22;;;26.90;63.40;;;27.29;47.74;94403.88;4995753;28;20195;-30
2023/08/28 05:05:57;;;;;;;0.30;0.30;;;26.90;62.50;;;27.29;47.65;94400.34;4995712;28;20192;-29
2023/08/28 05:08:25;;;;;;;0.30;0.30;;;26.90;62.60;;;27.29;47.32;94394.97;4995537;28;20647;-30
2023/08/28 05:10:52;;;;;;;0.20;0.20;;;26.90;62.60;;;27.29;47.41;94394.97;5011096;28;20345;-30
2023/08/28 05:13:19;;;;;;;0.38;0.38;;;26.90;62.60;;;27.30;47.48;94394.66;4995603;28;20232;-31
2023/08/28 05:15:46;;;;;;;0.30;0.30;;;26.90;62.60;;;27.31;47.62;94390.06;4995362;28;20219;-30
2023/08/28 05:18:14;;;;;;;0.20;0.20;;;26.90;62.60;;;27.29;47.52;94365.34;4994389;28;20265;-29
2023/08/28 05:20:43;;;;;;;0.30;0.30;;;26.90;62.60;;;27.31;47.80;94357.75;5078863;28;20230;-29
2023/08/28 05:23:11;;;;;;;0.30;0.30;;;27.00;62.60;;;27.30;47.89;94358.88;4994811;28;20535;-30
2023/08/28 05:25:38;;;;;;;0.45;0.45;;;26.90;62.50;;;27.30;47.88;94356.97;5010790;28;20279;-30
2023/08/28 05:28:05;;;;;;;0.30;0.30;;;26.90;62.50;;;27.30;47.40;94351.56;5010602;28;20270;-30
2023/08/28 05:30:32;;;;;;;0.30;0.30;;;26.90;62.50;;;27.32;47.94;94362.06;4994466;28;20213;-29
2023/08/28 05:32:59;;;;;;;0.30;0.30;;;26.90;62.50;;;27.31;47.48;94369.31;4995342;28;20276;-30
2023/08/28 05:35:27;;;;;;;0.30;0.30;;;26.90;62.50;;;27.31;47.55;94385.47;4995317;28;20273;-31
2023/08/28 05:37:54;;;;;;;0.30;0.30;;;26.90;62.50;;;27.31;47.58;94385.47;4995399;28;20313;-29
2023/08/28 05:40:21;;;;;;;0.30;0.30;;;26.90;62.50;;;27.30;47.80;94378.50;4995244;28;20201;-29
2023/08/28 05:42:48;;;;;;;0.20;0.20;;;26.90;62.60;;;27.30;47.99;94397.34;4994511;28;20222;-32
2023/08/28 05:45:16;;;;;;;0.30;0.30;;;26.90;62.50;;;27.30;48.13;94400.03;5079158;28;20201;-32
2023/08/28 05:47:44;;;;;;;0.38;0.38;;;26.90;62.50;;;27.31;48.00;94403.53;5010332;28;20212;-30
2023/08/28 05:50:12;;;;;;;0.30;0.30;;;26.90;63.40;;;27.30;47.71;94404.66;4995058;28;20198;-29
2023/08/28 05:52:39;;;;;;;0.30;0.30;;;26.90;62.40;;;27.31;47.55;94398.94;4995040;28;20219;-30
2023/08/28 05:55:07;;;;;;;0.35;0.35;;;26.90;62.50;;;27.31;47.34;94409.72;5061955;28;20628;-30
2023/08/28 05:57:34;;;;;;;0.30;0.30;;;26.90;62.50;;;27.30;47.73;94408.13;5010138;28;20230;-29
2023/08/28 06:00:04;;;;;;;0.30;0.30;;;26.90;62.50;;;27.31;47.33;94412.41;4992985;28;20206;-31
2023/08/28 06:02:39;;;;;;;0.30;0.30;;;27.00;62.50;;;27.31;47.81;94419.69;4995053;28;20282;-30
2023/08/28 06:05:07;;;;;;;0.30;0.30;;;26.90;62.50;;;27.32;47.51;94435.53;5010300;28;20202;-30
2023/08/28 06:07:35;;;;;;;0.38;0.38;;;27.00;62.50;;;27.32;47.37;94438.22;4994988;28;20246;-30
2023/08/28 06:10:05;;;;;;;0.35;0.35;;;26.90;62.40;;;27.30;47.73;94445.81;5079734;28;20370;-32
2023/08/28 06:12:32;;;;;;;0.30;0.30;;;26.90;62.30;;;27.31;47.40;94452.00;5010284;28;20208;-31
2023/08/28 06:15:00;;;;;;;0.40;0.40;;;26.90;62.30;;;27.30;47.46;94453.88;4995068;28;20206;-31
2023/08/28 06:17:28;;;;;;;0.20;0.20;;;26.90;62.30;;;27.30;47.66;94463.88;4993517;28;20689;-33
2023/08/28 06:19:55;;;;;;;0.30;0.30;;;26.90;62.20;;;27.28;47.50;94464.19;5009999;28;20211;-31
2023/08/28 06:22:22;;;;;;;0.32;0.32;;;26.90;62.20;;;27.28;47.36;94466.91;5010333;28;20603;-31
2023/08/28 06:24:52;;;;;;;0.30;0.30;;;26.90;62.20;;;27.28;47.46;94469.59;5010219;28;20202;-29
2023/08/28 06:27:21;;;;;;;0.30;0.30;;;26.90;62.20;;;27.27;47.17;94467.19;4994779;28;20548;-30
2023/08/28 06:29:48;;;;;;;0.40;0.40;;;26.90;62.30;;;27.26;47.36;94471.78;4994574;28;20216;-32
2023/08/28 06:32:15;;;;;;;0.30;0.30;;;26.90;62.30;;;27.26;47.17;94477.16;4994756;28;20649;-30
2023/08/28 06:34:42;;;;;;;0.22;0.22;;;26.90;62.30;;;27.26;47.40;94466.41;4994465;28;20578;-31
2023/08/28 06:37:10;;;;;;;0.30;0.30;;;26.90;62.30;;;27.25;47.64;94459.41;4994590;28;20276;-30
2023/08/28 06:39:37;;;;;;;0.30;0.30;;;26.90;62.30;;;27.24;47.29;94447.06;4994203;28;20282;-31
2023/08/28 06:42:05;;;;;;;0.30;0.30;;;26.90;62.30;;;27.25;47.45;94431.72;4994531;28;20303;-32
2023/08/28 06:44:35;;;;;;;0.30;0.30;;;26.90;62.40;;;27.25;47.45;94426.31;5010315;28;20210;-30
2023/08/28 06:47:02;;;;;;;0.30;0.30;;;26.90;62.40;;;27.26;47.14;94420.63;4993792;28;20201;-48
2023/08/28 06:49:30;;;;;;;0.30;0.30;;;26.90;62.40;;;27.25;47.45;94405.56;5061007;28;20595;-30
2023/08/28 06:51:57;;;;;;;0.30;0.30;;;26.90;62.50;;;27.27;47.75;94389.91;4994412;28;20194;-30
2023/08/28 06:54:24;;;;;;;0.30;0.30;;;26.90;63.50;;;27.28;47.57;94364.56;4994486;28;20242;-33
2023/08/28 06:57:02;;;;;;;0.22;0.22;;;26.90;62.50;;;27.29;47.27;94357.28;4994239;28;20218;-30
2023/08/28 06:59:29;;;;;;;0.30;0.30;;;26.90;62.50;;;27.30;47.50;94342.72;4994301;28;20626;-32
2023/08/28 07:01:57;;;;;;;0.40;0.40;;;26.90;62.50;;;27.32;47.49;94340.50;4978193;28;20664;-32
2023/08/28 07:04:24;;;;;;;0.40;0.40;;;26.90;62.50;;;27.32;47.60;94332.44;5078207;28;20198;-31
2023/08/28 07:06:51;;;;;;;0.43;0.43;;;26.90;62.50;;;27.33;47.38;94334.00;4993351;28;20661;-31
2023/08/28 07:09:18;;;;;;;0.30;0.30;;;27.00;62.60;;;27.35;47.73;94339.09;4994078;28;20285;-31
2023/08/28 07:11:46;;;;;;;0.30;0.30;;;27.00;62.50;;;27.35;47.46;94339.88;4994024;28;20198;-31
2023/08/28 07:14:14;;;;;;;0.30;0.30;;;27.00;62.60;;;27.36;47.71;94333.38;4993981;28;20221;-30
2023/08/28 07:16:41;;;;;;;0.30;0.30;;;27.00;62.50;;;27.38;47.46;94319.59;4993564;28;20244;-31
2023/08/28 07:19:09;;;;;;;0.30;0.30;;;27.00;62.50;;;27.39;47.92;94319.31;5077391;28;20677;-29
2023/08/28 07:21:36;;;;;;;0.30;0.30;;;27.00;62.50;;;27.40;47.40;94312.78;4993699;28;20189;-29
2023/08/28 07:24:04;;;;;;;0.30;0.30;;;27.00;62.50;;;27.41;47.77;94314.41;4994412;28;20227;-30
2023/08/28 07:26:32;;;;;;;0.20;0.20;;;27.00;62.40;;;27.42;47.26;94313.31;4993896;28;20207;-29
2023/08/28 07:28:59;;;;;;;0.22;0.22;;;27.00;62.40;;;27.43;47.52;94311.41;4993478;28;20211;-30
2023/08/28 07:31:26;;;;;;;0.35;0.35;;;27.00;62.30;;;27.45;47.33;94323.47;4993589;28;20201;-30
2023/08/28 07:33:53;;;;;;;0.30;0.30;;;27.10;62.30;;;27.46;47.33;94316.94;5077362;28;20236;-29
2023/08/28 07:36:22;;;;;;;0.30;0.30;;;27.10;62.30;;;27.47;47.21;94315.06;4993386;28;20632;-30
2023/08/28 07:38:50;;;;;;;0.40;0.40;;;27.10;62.30;;;27.46;47.16;94316.16;4992757;28;20192;-29
2023/08/28 07:41:19;;;;;;;0.30;0.30;;;27.10;62.20;;;27.47;47.60;94329.31;5060334;28;20624;-30
2023/08/28 07:43:47;;;;;;;0.30;0.30;;;27.10;62.20;;;27.47;47.33;94342.78;4993371;28;20209;-29
2023/08/28 07:46:15;;;;;;;0.38;0.38;;;27.10;62.10;;;27.48;47.16;94341.69;4992762;28;20246;-29
2023/08/28 07:48:42;;;;;;;0.30;0.30;;;27.10;62.10;;;27.48;47.04;94341.69;5076806;28;20207;-29
2023/08/28 07:51:10;;;;;;;0.30;0.30;;;27.10;62.10;;;27.50;46.88;94341.34;5076807;28;20204;-30
2023/08/28 07:53:38;;;;;;;0.30;0.30;;;27.10;62.20;;;27.50;46.98;94346.75;4993461;28;20208;-30
2023/08/28 07:56:05;;;;;;;0.30;0.30;;;27.10;62.10;;;27.50;46.68;94330.59;5076513;28;20257;-29
2023/08/28 07:58:33;;;;;;;0.30;0.30;;;27.10;62.10;;;27.51;47.42;94332.16;4992902;28;20305;-30
2023/08/28 08:01:00;;;;;;;0.30;0.30;;;27.10;62.10;;;27.53;47.21;94337.25;4993132;28;20203;-33
2023/08/28 08:03:27;;;;;;;0.30;0.30;;;27.10;62.00;;;27.52;47.13;94320.28;4993106;28;20193;-29
2023/08/28 08:05:55;;;;;;;0.30;0.30;;;27.10;62.00;;;27.52;47.17;94333.75;4993320;28;20546;-29
2023/08/28 08:08:23;;;;;;;0.30;0.30;;;27.10;61.90;;;27.52;46.90;94339.16;4993013;28;20191;-30
2023/08/28 08:10:50;;;;;;;0.30;0.30;;;27.10;61.90;;;27.53;46.75;94335.34;4992839;28;20626;-30
2023/08/28 08:13:18;;;;;;;0.30;0.30;;;27.10;62.00;;;27.53;47.30;94329.97;4992971;28;20646;-31
2023/08/28 08:15:45;;;;;;;0.28;0.28;;;27.10;62.00;;;27.52;46.96;94335.69;4992706;28;20649;-30
2023/08/28 08:18:12;;;;;;;0.30;0.30;;;27.10;62.00;;;27.53;46.77;94334.56;4992841;28;20218;-29
2023/08/28 08:20:39;;;;;;;0.40;0.40;;;27.10;62.80;;;27.53;46.85;94321.09;4993117;28;20594;-31
2023/08/28 08:23:07;;;;;;;0.30;0.30;;;27.10;61.80;;;27.53;46.99;94316.50;5007463;28;20223;-30
2023/08/28 08:25:34;;;;;;;0.30;0.30;;;27.10;61.80;;;27.54;46.80;94312.69;4992823;28;20189;-30
2023/08/28 08:28:02;;;;;;;0.30;0.30;;;27.10;61.90;;;27.55;47.03;94308.09;4993313;28;20201;-30
2023/08/28 08:30:30;;;;;;;0.38;0.38;;;27.10;61.90;;;27.55;46.67;94294.63;5075741;28;20204;-30
2023/08/28 08:32:57;;;;;;;0.20;0.20;;;27.10;61.90;;;27.56;46.84;94277.38;5076481;28;20209;-29
2023/08/28 08:35:25;;;;;;;0.30;0.30;;;27.10;61.80;;;27.57;46.46;94258.19;4992714;28;20320;-31
2023/08/28 08:37:52;;;;;;;0.30;0.30;;;27.10;61.80;;;27.58;46.83;94261.69;5007943;28;20253;-29
2023/08/28 08:40:26;;;;;;;0.30;0.30;;;27.10;61.70;;;27.59;46.49;94269.44;4992536;28;20194;-30
2023/08/28 08:42:56;;;;;;;0.35;0.35;;;27.20;61.70;;;27.60;46.27;94246.78;4991690;28;20194;-30
2023/08/28 08:45:28;;;;;;;0.20;0.20;;;27.20;61.60;;;27.61;46.24;94229.53;4992855;28;20184;-28
2023/08/28 08:48:00;;;;;;;0.30;0.30;;;27.20;61.50;;;27.61;46.06;94239.47;4993046;28;20205;-30
2023/08/28 08:50:28;;;;;;;0.20;0.20;;;27.20;61.40;;;27.61;46.67;94226.81;4991616;28;20202;-33
2023/08/28 08:53:06;;;;;;;0.30;0.30;;;27.20;61.40;;;27.62;45.99;94244.59;4991945;28;20234;-31
2023/08/28 08:55:47;;;;;;;0.40;0.40;;;27.20;61.30;;;27.61;46.39;94248.38;5075985;28;20185;-33
2023/08/28 08:58:16;;;;;;;0.32;0.32;;;27.20;61.20;;;27.63;45.88;94240.75;4991651;28;20232;-30
2023/08/28 09:00:44;;;;;;;0.30;0.30;;;27.20;61.20;;;27.64;46.35;94230.78;4992352;28;20222;-29
2023/08/28 09:03:14;;;;;;;0.40;0.40;;;27.20;61.30;;;27.64;45.85;94226.19;4992525;28;20252;-32
2023/08/28 09:05:42;;;;;;;0.30;0.30;;;27.20;61.20;;;27.66;46.24;94219.69;4992502;28;20590;-29
2023/08/28 09:08:12;;;;;;;0.38;0.38;;;27.20;61.10;;;27.66;45.74;94211.59;5075985;28;20198;-30
2023/08/28 09:10:39;;;;;;;0.30;0.30;;;27.20;61.10;;;27.66;46.21;94214.28;4992138;28;20651;-30
2023/08/28 09:13:06;;;;;;;0.30;0.30;;;27.20;61.10;;;27.67;46.04;94219.34;5059377;28;20194;-33
2023/08/28 09:15:34;;;;;;;0.30;0.30;;;27.20;61.00;;;27.68;46.09;94209.38;5076431;28;20221;-30
2023/08/28 09:18:02;;;;;;;0.30;0.30;;;27.20;61.00;;;27.69;45.66;94203.69;4992039;28;20295;-31
2023/08/28 09:20:30;;;;;;;0.40;0.40;;;27.20;60.90;;;27.70;45.64;94224.13;5075568;28;20199;-32
2023/08/28 09:22:57;;;;;;;0.30;0.30;;;27.30;61.00;;;27.70;45.84;94226.81;4992405;28;20221;-30
2023/08/28 09:25:26;;;;;;;0.20;0.20;;;27.30;61.00;;;27.71;45.67;94228.41;5007455;28;20204;-31
2023/08/28 09:27:55;;;;;;;0.38;0.38;;;27.30;61.00;;;27.72;45.68;94238.09;5007704;28;20203;-30
2023/08/28 09:30:36;;;;;;;0.30;0.30;;;27.30;61.00;;;27.74;45.26;94230.44;4992111;28;20208;-33
2023/08/28 09:33:06;;;;;;;0.30;0.30;;;27.30;60.80;;;27.73;45.79;94212.69;4992885;28;20551;-31
2023/08/28 09:35:42;;;;;;;0.38;0.38;;;27.30;60.80;;;27.75;45.29;94223.19;4995646;28;20203;-32
2023/08/28 09:38:10;;;;;;;0.25;0.25;;;27.30;60.80;;;27.76;45.15;94219.38;4995777;28;20258;-31
2023/08/28 09:40:40;;;;;;;0.40;0.40;;;27.30;60.90;;;27.78;45.65;94222.53;4995123;28;20190;-30
2023/08/28 09:43:15;;;;;;;0.30;0.30;;;27.30;60.90;;;27.78;45.68;94234.13;5077825;28;20237;-30
2023/08/28 09:45:44;;;;;;;0.30;0.30;;;27.30;60.70;;;27.80;45.20;94221.09;4995487;28;20186;-30
2023/08/28 09:48:12;;;;;;;0.30;0.30;;;27.30;61.70;;;27.80;45.36;94204.16;4995141;28;20209;-30
2023/08/28 09:50:42;;;;;;;0.20;0.20;;;27.30;60.80;;;27.82;45.55;94179.56;4994918;28;20254;-33
2023/08/28 09:53:11;;;;;;;0.30;0.30;;;27.40;60.80;;;27.82;44.97;94174.19;4995281;28;20520;-32
2023/08/28 09:55:39;;;;;;;0.20;0.20;;;27.40;60.70;;;27.84;45.17;94177.34;4994963;28;20191;-32
2023/08/28 09:58:10;;;;;;;0.30;0.30;;;27.40;60.70;;;27.84;45.61;94188.91;5010548;28;20269;-32
2023/08/28 10:00:40;;;;;;;0.30;0.30;;;27.40;60.60;;;27.85;44.97;94182.41;5010160;28;20193;-33
2023/08/28 10:03:12;;;;;;;0.30;0.30;;;27.40;60.60;;;27.88;44.83;94186.38;4995091;28;20210;-32
2023/08/28 10:05:42;;;;;;;0.40;0.40;;;27.40;60.60;;;27.87;45.41;94180.19;4995177;28;20675;-34
2023/08/28 10:08:12;;;;;;;0.30;0.30;;;27.40;60.60;;;27.87;45.06;94177.50;5079046;28;20206;-33
2023/08/28 10:10:46;;;;;;;0.20;0.20;;;27.40;60.60;;;27.88;44.99;94168.31;4994692;28;20190;-30
2023/08/28 10:13:21;;;;;;;0.28;0.28;;;27.40;60.60;;;27.89;44.95;94142.94;5060403;28;20259;-33
2023/08/28 10:16:06;;;;;;;0.30;0.30;;;27.40;60.50;;;27.89;44.81;94145.66;4994643;28;20187;-31
2023/08/28 10:18:46;;;;;;;0.30;0.30;;;27.40;60.50;;;27.91;44.72;94134.53;4993764;28;20228;-30
2023/08/28 10:21:16;;;;;;;0.35;0.35;;;27.40;60.40;;;27.92;44.94;94119.97;4994856;28;20524;-30
2023/08/28 10:23:46;;;;;;;0.40;0.40;;;27.50;60.50;;;27.92;45.22;94111.88;4994619;28;20187;-30
2023/08/28 10:26:14;;;;;;;0.30;0.30;;;27.50;60.40;;;27.95;45.11;94106.63;4994552;28;20196;-31
2023/08/28 10:28:42;;;;;;;0.30;0.30;;;27.50;60.40;;;27.96;44.74;94096.63;4994493;28;20261;-31